Nearby METAR Reports

 

KEDC - Austin Exec, Texas, USA
Distance from station: SE 7mi, 12km
Updated: Sat, 23-Sep-2017 5:55pm CDT
Clear
Clear
 Wind from SE
Wind: SE 10 mph , 17 km/h
Temperature: 88°F , 31°C
Heat Index: 90°F , 32°C
Dew Point: 64°F , 18°C
Humidity: 46%
Barometer: 29.86 inHg , 1011.2 hPa
Clouds: Clear
Visibility: 10 miles , 16 km
2017/09/23 22:55 KEDC 232255Z AUTO 13009KT 10SM CLR 31/18 A2986 RMK AO2
KATT - Austin/Mabry, Texas, USA
Distance from station: SSW 13mi, 21km
Updated: Sat, 23-Sep-2017 5:51pm CDT
Clear
Clear
 Wind from SE
Wind: SE 5 mph , 7 km/h
Temperature: 88°F , 31°C
Heat Index: 91°F , 33°C
Dew Point: 66°F , 19°C
Humidity: 49%
Barometer: 29.86 inHg , 1011.2 hPa
Clouds: Clear
Visibility: 10 miles , 16 km
2017/09/23 22:51 KATT 232251Z AUTO 13004KT 10SM CLR 31/19 A2986 RMK AO2 SLP097 T03110189
 
KGTU - Georgetown, Texas, USA
Distance from station: N 14mi, 23km
Updated: Sat, 23-Sep-2017 5:56pm CDT
Few Clouds
Few Clouds
 Wind from ESE
Wind: ESE 12 mph , 19 km/h
Temperature: 90°F , 32°C
Heat Index: 92°F , 33°C
Dew Point: 64°F , 18°C
Humidity: 43%
Barometer: 29.87 inHg , 1011.5 hPa
Clouds: Few Clouds
Visibility: 10 miles , 16 km
Cloud details: Few Clouds 5500 ft
2017/09/23 22:56 KGTU 232256Z 11010KT 10SM FEW055 32/18 A2987 RMK AO2 SLP108 T03170183
KRYW - Lago Vista, Texas, USA
Distance from station: W 19mi, 31km
Updated: Sat, 23-Sep-2017 6:15pm CDT
Partly cloudy
Partly cloudy
 Wind from ESE
Wind: ESE 9 mph , 15 km/h, Gust: 16 mph , 26 km/h
Temperature: 88°F , 31°C
Heat Index: 91°F , 33°C
Dew Point: 66°F , 19°C
Humidity: 49%
Barometer: 29.87 inHg , 1011.5 hPa
Clouds: Partly cloudy
Visibility: 10 miles , 16 km
Cloud details: Partly cloudy 4700 ft
2017/09/23 23:15 KRYW 232315Z AUTO 11008G14KT 10SM SCT047 31/19 A2987 RMK AO2 T03070188
 
KAUS - Austin, Texas, USA
Distance from station: S 20mi, 33km
Updated: Sat, 23-Sep-2017 5:53pm CDT
Few Clouds
Few Clouds
 Wind from SE
Wind: SE 12 mph , 19 km/h
Temperature: 90°F , 32°C
Heat Index: 94°F , 34°C
Dew Point: 68°F , 20°C
Humidity: 49%
Barometer: 29.83 inHg , 1010.2 hPa
Clouds: Few Clouds
Visibility: 10 miles , 16 km
Cloud details: Few Clouds 5000 ft
2017/09/23 22:53 KAUS 232253Z 13010KT 10SM FEW050 32/20 A2983
KBMQ - Burnet, Texas, USA
Distance from station: WNW 39mi, 63km
Updated: Sat, 23-Sep-2017 1:38pm CDT
NOT Current
Partly cloudy
Partly cloudy
 Wind from SSE
Wind: SSE 10 mph , 17 km/h, Gust: 16 mph , 26 km/h
Temperature: 88°F , 31°C
Heat Index: 91°F , 33°C
Dew Point: 66°F , 19°C
Humidity: 49%
Barometer: 29.95 inHg , 1014.2 hPa
Clouds: Partly cloudy
Visibility: 10 miles , 16 km
Cloud details: Partly cloudy 4000 ft
Partly cloudy 4900 ft
2017/09/23 18:38 KBMQ 231838Z 16009G14KT 10SM SCT040 SCT049 31/19 A2995
 
KILE - Killeen Muni, Texas, USA
Distance from station: N 41mi, 66km
Updated: Thu, 14-Sep-2017 9:21am CDT
NOT Current
Mostly cloudy
Mostly cloudy
 Wind from S
Wind: S 9 mph , 15 km/h
Temperature: 75°F , 24°C
Dew Point: 72°F , 22°C
Humidity: 89%
Barometer: 29.88 inHg , 1011.9 hPa
Clouds: Mostly cloudy
Visibility: 10 miles , 16 km
Cloud details: Mostly cloudy 800 ft
2017/09/14 14:21 KILE 141421Z AUTO 17008KT 10SM BKN008 24/22 A2988 RMK AO2
KGRK - Gray/Ft Hood, Texas, USA
Distance from station: NNW 42mi, 68km
Updated: Sat, 23-Sep-2017 5:58pm CDT
Clear
Clear
 Wind from SE
Wind: SE 16 mph , 26 km/h
Temperature: 88°F , 31°C
Heat Index: 89°F , 32°C
Dew Point: 63°F , 17°C
Humidity: 43%
Barometer: 29.85 inHg , 1010.8 hPa
Clouds: Clear
Visibility: 10 miles , 16 km
2017/09/23 22:58 KGRK 232258Z 13014KT 10SM CLR 31/17 A2985 RMK AO2A SLPNO T03140173 $
 
KDZB - Horseshoe Bay, Texas, USA
Distance from station: W 43mi, 69km
Updated: Sat, 23-Sep-2017 6:15pm CDT
Clear
Clear
 Wind from SE
Wind: SE 9 mph , 15 km/h
Temperature: 88°F , 31°C
Heat Index: 90°F , 32°C
Dew Point: 64°F , 18°C
Humidity: 46%
Barometer: 29.85 inHg , 1010.8 hPa
Clouds: Clear
Visibility: 10 miles , 16 km
2017/09/23 23:15 KDZB 232315Z AUTO 13008KT 090V150 10SM CLR 31/18 A2985 RMK AO2 T03140182
KHYI - San Marcos, Texas, USA
Distance from station: SSW 43mi, 69km
Updated: Sat, 23-Sep-2017 5:56pm CDT
Clear
Clear
 Wind from ESE
Wind: ESE 15 mph , 24 km/h
Temperature: 88°F , 31°C
Heat Index: 93°F , 34°C
Dew Point: 70°F , 21°C
Humidity: 55%
Barometer: 29.84 inHg , 1010.5 hPa
Clouds: Clear
Visibility: 10 miles , 16 km
2017/09/23 22:56 KHYI 232256Z 12013KT 10SM CLR 31/21 A2984 RMK AO2 SLP096 T03110206
 
KGYB - Giddings-Lee, Texas, USA
Distance from station: ESE 45mi, 73km
Updated: Sat, 23-Sep-2017 6:15pm CDT
Clear
Clear
 Wind from ESE
Wind: ESE 8 mph , 13 km/h
Temperature: 88°F , 31°C
Heat Index: 91°F , 33°C
Dew Point: 66°F , 19°C
Humidity: 49%
Barometer: 29.86 inHg , 1011.2 hPa
Clouds: Clear
Visibility: 10 miles , 16 km
2017/09/23 23:15 KGYB 232315Z AUTO 11007KT 10SM CLR 31/19 A2986 RMK AO2 T03130188
KHLR - Ft Hood/Killeen, Texas, USA
Distance from station: N 46mi, 73km
Updated: Sat, 23-Sep-2017 5:58pm CDT
Clear
Clear
 Wind from ESE
Wind: ESE 12 mph , 19 km/h
Clouds: Clear
Visibility: 9 miles , 14 km
2017/09/23 22:58 KHLR 232258Z AUTO 12010KT 9SM CLR M A2983 RMK AO2 SLPNO $
 
KTPL - Temple/Miller, Texas, USA
Distance from station: NNE 48mi, 77km
Updated: Sat, 23-Sep-2017 5:51pm CDT
Few Clouds
Few Clouds
 Wind from SE
Wind: SE 14 mph , 22 km/h, Gust: 21 mph , 33 km/h
Temperature: 90°F , 32°C
Heat Index: 92°F , 33°C
Dew Point: 64°F , 18°C
Humidity: 43%
Barometer: 29.86 inHg , 1011.2 hPa
Clouds: Few Clouds
Visibility: 10 miles , 16 km
Cloud details: Few Clouds 5500 ft
2017/09/23 22:51 KTPL 232251Z AUTO 13012G18KT 10SM FEW055 32/18 A2986 RMK AO2 SLP114 T03220183
KT35 - Cameron, Texas, USA
Distance from station: NE 49mi, 79km
Updated: Sat, 23-Sep-2017 6:15pm CDT
Clear
Clear
 Wind from SE
Wind: SE 7 mph , 11 km/h
Temperature: 90°F , 32°C
Heat Index: 93°F , 34°C
Dew Point: 66°F , 19°C
Humidity: 46%
Barometer: 29.85 inHg , 1010.8 hPa
Clouds: Clear
Visibility: 10 miles , 16 km
2017/09/23 23:15 KT35 232315Z AUTO 13006KT 10SM CLR 32/19 A2985 RMK AO2 T03160191